sensor_id;sensor_type;location;lat;lon;timestamp;P1;durP1;ratioP1;P2;durP2;ratioP2
6665;SDS011;3369;49.906;8.598;2022-10-16T10:55:03;2.13;;;2.00;;
6665;SDS011;3369;49.906;8.598;2022-10-16T11:03:39;2.97;;;1.60;;
6665;SDS011;3369;49.906;8.598;2022-10-16T11:06:39;2.03;;;1.90;;
6665;SDS011;3369;49.906;8.598;2022-10-16T11:09:36;3.33;;;2.33;;
6665;SDS011;3369;49.906;8.598;2022-10-16T11:12:11;3.60;;;1.90;;
6665;SDS011;3369;49.906;8.598;2022-10-16T11:14:56;2.03;;;1.77;;
6665;SDS011;3369;49.906;8.598;2022-10-16T11:17:38;1.63;;;1.53;;
6665;SDS011;3369;49.906;8.598;2022-10-16T11:23:42;2.00;;;1.80;;
6665;SDS011;3369;49.906;8.598;2022-10-16T11:26:02;1.47;;;1.37;;
6665;SDS011;3369;49.906;8.598;2022-10-16T11:28:34;4.10;;;1.80;;
6665;SDS011;3369;49.906;8.598;2022-10-16T11:33:45;1.93;;;1.47;;
6665;SDS011;3369;49.906;8.598;2022-10-16T11:36:16;2.53;;;1.70;;
6665;SDS011;3369;49.906;8.598;2022-10-16T11:38:59;1.50;;;1.40;;
6665;SDS011;3369;49.906;8.598;2022-10-16T11:46:32;1.70;;;1.60;;
6665;SDS011;3369;49.906;8.598;2022-10-16T11:49:06;1.80;;;1.63;;
6665;SDS011;3369;49.906;8.598;2022-10-16T11:51:38;1.93;;;1.70;;
6665;SDS011;3369;49.906;8.598;2022-10-16T11:54:19;2.53;;;1.43;;
6665;SDS011;3369;49.906;8.598;2022-10-16T11:56:54;1.73;;;1.27;;
6665;SDS011;3369;49.906;8.598;2022-10-16T11:59:31;2.40;;;1.60;;
6665;SDS011;3369;49.906;8.598;2022-10-16T12:04:57;1.20;;;1.10;;
6665;SDS011;3369;49.906;8.598;2022-10-16T12:07:27;3.80;;;1.37;;
6665;SDS011;3369;49.906;8.598;2022-10-16T12:10:10;0.90;;;0.90;;
6665;SDS011;3369;49.906;8.598;2022-10-16T12:12:47;1.50;;;1.40;;
6665;SDS011;3369;49.906;8.598;2022-10-16T12:17:47;1.80;;;1.60;;
6665;SDS011;3369;49.906;8.598;2022-10-16T12:22:47;2.03;;;1.80;;
6665;SDS011;3369;49.906;8.598;2022-10-16T12:27:57;1.30;;;1.30;;
6665;SDS011;3369;49.906;8.598;2022-10-16T12:30:43;1.30;;;1.20;;
6665;SDS011;3369;49.906;8.598;2022-10-16T12:33:23;1.33;;;1.23;;
6665;SDS011;3369;49.906;8.598;2022-10-16T12:36:00;1.60;;;1.50;;
6665;SDS011;3369;49.906;8.598;2022-10-16T12:41:03;1.60;;;1.50;;
6665;SDS011;3369;49.906;8.598;2022-10-16T12:46:06;1.80;;;1.70;;
6665;SDS011;3369;49.906;8.598;2022-10-16T12:51:53;1.40;;;1.30;;
6665;SDS011;3369;49.906;8.598;2022-10-16T12:54:25;1.83;;;1.73;;
6665;SDS011;3369;49.906;8.598;2022-10-16T13:05:32;3.17;;;1.70;;
6665;SDS011;3369;49.906;8.598;2022-10-16T13:16:53;1.60;;;1.50;;
6665;SDS011;3369;49.906;8.598;2022-10-16T13:22:18;1.90;;;1.50;;
6665;SDS011;3369;49.906;8.598;2022-10-16T13:25:23;1.57;;;1.47;;
6665;SDS011;3369;49.906;8.598;2022-10-16T13:27:56;1.37;;;1.37;;
6665;SDS011;3369;49.906;8.598;2022-10-16T13:30:30;1.90;;;1.80;;
6665;SDS011;3369;49.906;8.598;2022-10-16T13:33:02;1.77;;;1.53;;
6665;SDS011;3369;49.906;8.598;2022-10-16T13:35:32;1.33;;;1.33;;
6665;SDS011;3369;49.906;8.598;2022-10-16T13:38:11;1.47;;;1.37;;
6665;SDS011;3369;49.906;8.598;2022-10-16T13:40:55;1.40;;;1.30;;
6665;SDS011;3369;49.906;8.598;2022-10-16T13:43:27;2.50;;;1.83;;
6665;SDS011;3369;49.906;8.598;2022-10-16T13:46:07;1.43;;;1.40;;
6665;SDS011;3369;49.906;8.598;2022-10-16T13:49:12;2.60;;;1.53;;
6665;SDS011;3369;49.906;8.598;2022-10-16T13:51:53;2.00;;;1.80;;
6665;SDS011;3369;49.906;8.598;2022-10-16T13:54:22;5.27;;;4.73;;
6665;SDS011;3369;49.906;8.598;2022-10-16T13:56:49;5.63;;;5.00;;
6665;SDS011;3369;49.906;8.598;2022-10-16T13:59:32;4.23;;;3.93;;
6665;SDS011;3369;49.906;8.598;2022-10-16T14:01:59;3.70;;;3.10;;
6665;SDS011;3369;49.906;8.598;2022-10-16T14:04:31;2.33;;;2.20;;
6665;SDS011;3369;49.906;8.598;2022-10-16T14:06:58;2.40;;;2.20;;
6665;SDS011;3369;49.906;8.598;2022-10-16T14:09:24;2.57;;;2.37;;
6665;SDS011;3369;49.906;8.598;2022-10-16T14:12:10;3.03;;;2.13;;
6665;SDS011;3369;49.906;8.598;2022-10-16T14:14:44;2.27;;;2.13;;
6665;SDS011;3369;49.906;8.598;2022-10-16T14:17:19;1.93;;;1.80;;
6665;SDS011;3369;49.906;8.598;2022-10-16T14:19:51;2.13;;;1.90;;
6665;SDS011;3369;49.906;8.598;2022-10-16T14:24:59;1.70;;;1.60;;
6665;SDS011;3369;49.906;8.598;2022-10-16T14:27:27;2.00;;;1.90;;
6665;SDS011;3369;49.906;8.598;2022-10-16T14:30:17;2.00;;;1.83;;
6665;SDS011;3369;49.906;8.598;2022-10-16T14:53:40;2.00;;;1.70;;
6665;SDS011;3369;49.906;8.598;2022-10-16T14:56:09;1.67;;;1.57;;
6665;SDS011;3369;49.906;8.598;2022-10-16T14:58:50;2.00;;;1.70;;
6665;SDS011;3369;49.906;8.598;2022-10-16T15:01:16;1.70;;;1.60;;
6665;SDS011;3369;49.906;8.598;2022-10-16T23:01:39;2.47;;;2.27;;
6665;SDS011;3369;49.906;8.598;2022-10-16T23:04:06;3.20;;;2.90;;
6665;SDS011;3369;49.906;8.598;2022-10-16T23:06:32;2.40;;;2.30;;
6665;SDS011;3369;49.906;8.598;2022-10-16T23:08:59;2.70;;;2.50;;
6665;SDS011;3369;49.906;8.598;2022-10-16T23:11:26;2.60;;;2.27;;
6665;SDS011;3369;49.906;8.598;2022-10-16T23:13:52;2.97;;;2.40;;
6665;SDS011;3369;49.906;8.598;2022-10-16T23:16:19;5.00;;;2.20;;
6665;SDS011;3369;49.906;8.598;2022-10-16T23:18:46;4.60;;;2.47;;
